Time;durP1;ratioP1;P1;durP2;ratioP2;P2;SDS_P1;SDS_P2;PMS_P1;PMS_P2;Temp;Humidity;BMP_temperature;BMP_pressure;BME280_temperature;BME280_humidity;BME280_pressure;Samples;Min_cycle;Max_cycle;Signal;HPM_P1;HPM_P2
2022/05/13 00:02:08;;;;;;;6.85;3.38;;;11.70;99.90;;;;;;5057434;28;20041;-83
2022/05/13 00:04:34;;;;;;;5.82;2.17;;;11.70;99.90;;;;;;5064739;28;20053;-83
2022/05/13 00:07:00;;;;;;;5.82;2.78;;;11.70;99.90;;;;;;5059517;28;20138;-84
2022/05/13 00:09:56;;;;;;;6.93;2.92;;;11.80;99.90;;;;;;5054335;28;20048;-84
2022/05/13 00:12:11;;;;;;;6.57;2.70;;;11.80;99.90;;;;;;5049273;28;20056;-85
2022/05/13 00:14:37;;;;;;;8.68;2.92;;;11.70;99.90;;;;;;5057623;28;20044;-85
2022/05/13 00:17:03;;;;;;;8.63;2.90;;;11.80;99.90;;;;;;5052706;28;20412;-84
2022/05/13 00:19:28;;;;;;;5.30;2.88;;;11.80;99.90;;;;;;5035891;28;20041;-84
2022/05/13 00:21:54;;;;;;;6.93;2.85;;;11.80;99.90;;;;;;5053448;28;20045;-83
2022/05/13 00:24:20;;;;;;;4.88;2.60;;;11.80;99.90;;;;;;5052930;28;20041;-84
2022/05/13 00:26:45;;;;;;;6.95;2.92;;;11.80;99.90;;;;;;5035500;28;20060;-84
2022/05/13 00:29:11;;;;;;;7.53;2.90;;;11.80;99.90;;;;;;5038221;28;20048;-84
2022/05/13 00:31:36;;;;;;;7.65;2.80;;;11.80;99.90;;;;;;5033055;28;20496;-84
2022/05/13 00:34:02;;;;;;;7.10;3.20;;;11.80;99.90;;;;;;5015147;28;20056;-84
2022/05/13 00:36:28;;;;;;;8.55;3.15;;;11.80;99.90;;;;;;5032156;28;20156;-85
2022/05/13 00:38:53;;;;;;;8.93;3.20;;;11.80;99.90;;;;;;5031901;28;20043;-85
2022/05/13 00:41:19;;;;;;;5.75;3.20;;;11.70;99.90;;;;;;5031513;28;20037;-85
2022/05/13 00:43:52;;;;;;;7.13;2.80;;;11.90;99.90;;;;;;5032737;28;20542;-86
2022/05/13 00:46:21;;;;;;;7.93;3.17;;;11.90;99.90;;;;;;5030936;28;20508;-84
2022/05/13 00:48:47;;;;;;;7.38;2.63;;;11.90;99.90;;;;;;5031482;28;20045;-84
2022/05/13 00:51:16;;;;;;;8.10;2.95;;;11.90;99.90;;;;;;5032179;28;20042;-85
2022/05/13 00:53:42;;;;;;;9.63;3.08;;;11.90;99.90;;;;;;4999614;28;20069;-84
2022/05/13 00:56:08;;;;;;;8.18;3.10;;;11.90;99.90;;;;;;4999331;28;20053;-84
2022/05/13 00:58:35;;;;;;;6.68;2.63;;;11.90;99.90;;;;;;5031991;28;20045;-87
2022/05/13 01:01:00;;;;;;;7.20;3.25;;;12.00;99.90;;;;;;4982552;28;20129;-84
2022/05/13 01:03:27;;;;;;;10.90;3.08;;;12.00;99.90;;;;;;5014531;28;20120;-85
2022/05/13 01:05:55;;;;;;;8.25;2.80;;;12.00;99.90;;;;;;5031093;28;20045;-84
2022/05/13 01:08:21;;;;;;;8.45;3.13;;;12.10;99.90;;;;;;5031119;28;20045;-84
2022/05/13 01:10:46;;;;;;;8.45;2.80;;;12.00;99.90;;;;;;5031336;28;20368;-84
2022/05/13 01:13:15;;;;;;;10.77;2.88;;;12.00;99.90;;;;;;5030886;28;20129;-84
2022/05/13 01:15:41;;;;;;;8.43;3.05;;;12.00;99.90;;;;;;5031332;28;20481;-84
2022/05/13 01:18:06;;;;;;;9.30;2.85;;;12.00;99.90;;;;;;4998572;28;20084;-84
2022/05/13 01:20:33;;;;;;;10.02;2.78;;;12.00;99.90;;;;;;5014209;28;20076;-85
2022/05/13 01:23:09;;;;;;;7.90;2.80;;;11.80;99.90;;;;;;5030576;28;20049;-84
2022/05/13 01:25:41;;;;;;;11.48;3.15;;;12.00;99.90;;;;;;4999442;28;20481;-84
2022/05/13 01:28:36;;;;;;;7.15;2.63;;;12.10;99.90;;;;;;4998638;28;20041;-84
2022/05/13 01:31:03;;;;;;;;;;;12.10;99.90;;;;;;5031525;28;20485;-84
2022/05/13 01:33:29;;;;;;;6.70;2.65;;;12.10;99.90;;;;;;5046901;28;19928;-85
2022/05/13 01:35:55;;;;;;;7.07;2.53;;;12.10;99.90;;;;;;5018503;28;20045;-85
2022/05/13 01:38:24;;;;;;;12.30;2.85;;;12.20;99.90;;;;;;5014512;28;20042;-85
2022/05/13 01:40:50;;;;;;;5.63;2.67;;;12.20;99.90;;;;;;5032149;28;20385;-84
2022/05/13 01:43:15;;;;;;;7.53;3.25;;;12.10;99.90;;;;;;5014120;28;20053;-84
2022/05/13 01:45:41;;;;;;;6.13;2.80;;;12.10;99.90;;;;;;5031270;28;20044;-84
2022/05/13 01:48:07;;;;;;;7.95;3.00;;;12.10;99.90;;;;;;5030156;28;20562;-85
2022/05/13 01:50:34;;;;;;;10.27;2.70;;;12.00;99.90;;;;;;5017590;28;20377;-85
2022/05/13 01:53:00;;;;;;;6.22;2.80;;;12.00;99.90;;;;;;5031308;28;20041;-84
2022/05/13 01:55:25;;;;;;;7.45;2.92;;;12.00;99.90;;;;;;5029981;28;20037;-83
2022/05/13 01:57:51;;;;;;;7.30;2.50;;;12.00;99.90;;;;;;5029982;28;20052;-85
2022/05/13 02:00:18;;;;;;;9.02;3.22;;;12.00;99.90;;;;;;5013551;28;20037;-85
2022/05/13 02:05:27;;;;;;;7.43;3.03;;;12.10;99.90;;;;;;5015796;28;20045;-86
2022/05/13 02:07:53;;;;;;;9.80;3.47;;;12.00;99.90;;;;;;5029441;28;20071;-85
2022/05/13 02:10:19;;;;;;;7.18;3.10;;;12.00;99.90;;;;;;5030294;28;20120;-86
2022/05/13 02:12:46;;;;;;;7.15;2.75;;;12.00;99.90;;;;;;5029360;28;20045;-85
2022/05/13 02:15:11;;;;;;;7.97;2.95;;;12.00;99.90;;;;;;5013573;28;20108;-86
2022/05/13 02:17:37;;;;;;;9.65;3.20;;;12.00;99.90;;;;;;5029868;28;20481;-85
2022/05/13 02:20:05;;;;;;;6.35;3.22;;;12.00;99.90;;;;;;5030959;28;20049;-86
2022/05/13 02:22:30;;;;;;;10.50;3.15;;;11.90;99.90;;;;;;5029630;28;20057;-85
2022/05/13 02:24:56;;;;;;;7.50;3.63;;;11.90;99.90;;;;;;5030525;28;20037;-85
2022/05/13 02:27:22;;;;;;;8.70;3.20;;;11.90;99.90;;;;;;5013804;28;20053;-85
2022/05/13 02:29:47;;;;;;;10.23;3.50;;;11.90;99.90;;;;;;5031227;28;20120;-84
2022/05/13 02:32:13;;;;;;;9.27;3.25;;;11.90;99.90;;;;;;5031505;28;20114;-86
2022/05/13 02:34:38;;;;;;;5.90;3.08;;;12.00;99.90;;;;;;5030444;28;20455;-86
2022/05/13 02:37:04;;;;;;;6.78;3.15;;;11.90;99.90;;;;;;5031438;28;20091;-86
2022/05/13 02:39:30;;;;;;;7.05;3.17;;;11.90;99.90;;;;;;5029857;28;20092;-86
2022/05/13 02:41:56;;;;;;;8.02;3.20;;;11.90;99.90;;;;;;5031561;28;20128;-85
2022/05/13 02:44:22;;;;;;;10.57;4.00;;;11.90;99.90;;;;;;5013991;28;20049;-84
2022/05/13 02:46:48;;;;;;;8.88;3.50;;;11.90;99.90;;;;;;5013563;28;20049;-84
2022/05/13 02:49:14;;;;;;;6.90;3.63;;;11.90;99.90;;;;;;5030162;28;20076;-84
2022/05/13 02:51:40;;;;;;;12.77;4.00;;;11.80;99.90;;;;;;5029670;28;20041;-85
2022/05/13 02:54:07;;;;;;;8.60;3.20;;;11.80;99.90;;;;;;5014124;28;20092;-84
2022/05/13 02:56:33;;;;;;;9.02;3.40;;;11.80;99.90;;;;;;5012911;28;20041;-84
2022/05/13 02:58:59;;;;;;;10.40;3.55;;;11.80;99.90;;;;;;5013194;28;20041;-84
2022/05/13 03:01:25;;;;;;;10.10;3.40;;;11.80;99.90;;;;;;5029695;28;20111;-85
2022/05/13 03:03:50;;;;;;;12.25;4.57;;;11.80;99.90;;;;;;4996464;28;20381;-85
2022/05/13 03:06:17;;;;;;;8.40;4.28;;;11.70;99.90;;;;;;5019516;28;20084;-86
2022/05/13 03:08:42;;;;;;;9.50;3.78;;;11.70;99.90;;;;;;5042262;28;20060;-84
2022/05/13 03:11:08;;;;;;;10.70;3.58;;;11.70;99.90;;;;;;5032041;28;20377;-84
2022/05/13 03:13:34;;;;;;;9.00;3.97;;;11.60;99.90;;;;;;5019878;28;20083;-84
2022/05/13 03:16:07;;;;;;;7.80;3.65;;;11.70;99.90;;;;;;5041550;28;20037;-83
2022/05/13 03:18:33;;;;;;;7.40;3.90;;;11.60;99.90;;;;;;5036176;28;20041;-83
2022/05/13 03:20:59;;;;;;;6.57;3.28;;;11.60;99.90;;;;;;5016957;28;20040;-84
2022/05/13 03:23:24;;;;;;;8.10;3.70;;;11.60;99.90;;;;;;5034364;28;20081;-84
2022/05/13 03:25:50;;;;;;;8.77;3.50;;;11.60;99.90;;;;;;5032229;28;20107;-84
2022/05/13 03:28:15;;;;;;;11.18;4.18;;;11.60;99.90;;;;;;5032821;28;20052;-85
2022/05/13 03:30:41;;;;;;;11.55;4.28;;;11.60;99.90;;;;;;5034250;28;20113;-84
2022/05/13 03:33:07;;;;;;;10.55;3.97;;;11.60;99.90;;;;;;5032550;28;20136;-84
2022/05/13 03:35:32;;;;;;;9.68;3.90;;;11.60;99.90;;;;;;5032414;28;20099;-85
2022/05/13 03:37:58;;;;;;;13.60;4.53;;;11.70;99.90;;;;;;5052487;28;20041;-85
2022/05/13 03:40:24;;;;;;;8.57;3.90;;;11.60;99.90;;;;;;5051879;28;20033;-85
2022/05/13 03:42:49;;;;;;;12.88;4.60;;;11.60;99.90;;;;;;5034132;28;20041;-84
2022/05/13 03:45:16;;;;;;;10.07;3.67;;;11.60;99.90;;;;;;5051649;28;20098;-85
2022/05/13 03:47:42;;;;;;;9.35;4.68;;;11.60;99.90;;;;;;5049589;28;20045;-85
2022/05/13 03:50:08;;;;;;;13.60;4.05;;;11.60;99.90;;;;;;5050694;28;20542;-85
2022/05/13 03:52:34;;;;;;;14.38;4.32;;;11.60;99.90;;;;;;5051673;28;20045;-84
2022/05/13 03:55:00;;;;;;;8.48;4.22;;;11.60;99.90;;;;;;5032403;28;20061;-86
2022/05/13 03:57:29;;;;;;;18.58;5.63;;;11.70;99.90;;;;;;5052685;28;20080;-85
2022/05/13 03:59:54;;;;;;;14.23;3.92;;;11.70;99.90;;;;;;5050809;28;20068;-85
2022/05/13 04:02:20;;;;;;;9.38;4.65;;;11.60;99.90;;;;;;5049503;28;20158;-86
2022/05/13 04:10:15;;;;;;;11.68;3.70;;;11.60;99.90;;;;;;5036247;28;20045;-85
2022/05/13 04:18:09;;;;;;;12.55;4.28;;;11.60;99.90;;;;;;5052821;28;20881;-85
2022/05/13 04:20:35;;;;;;;14.15;4.18;;;11.60;99.90;;;;;;5035869;28;20693;-87
2022/05/13 04:23:02;;;;;;;12.38;4.43;;;11.60;99.90;;;;;;5053323;28;20088;-89
2022/05/13 04:25:27;;;;;;;11.25;5.20;;;11.70;99.90;;;;;;5036057;28;20080;-86
2022/05/13 04:27:53;;;;;;;13.93;4.40;;;11.70;99.90;;;;;;5019093;28;20111;-86
2022/05/13 04:30:19;;;;;;;13.60;4.60;;;11.70;99.90;;;;;;5052702;28;20060;-88
2022/05/13 04:32:44;;;;;;;15.45;4.55;;;11.60;99.90;;;;;;5053128;28;20144;-87
2022/05/13 04:35:10;;;;;;;8.82;4.38;;;11.60;99.90;;;;;;5053758;28;20124;-88
2022/05/13 04:37:37;;;;;;;13.93;5.30;;;11.60;99.90;;;;;;5051579;28;20053;-86
2022/05/13 04:40:03;;;;;;;12.50;4.68;;;11.60;99.90;;;;;;5050872;28;20041;-86
2022/05/13 04:45:13;;;;;;;10.52;4.28;;;11.60;99.90;;;;;;5051441;28;20049;-84
2022/05/13 04:50:22;;;;;;;13.55;4.38;;;11.60;99.90;;;;;;5050319;28;20083;-87
2022/05/13 04:52:48;;;;;;;20.17;5.75;;;11.60;99.90;;;;;;5030522;28;20049;-85
2022/05/13 04:55:14;;;;;;;13.63;4.75;;;11.80;99.90;;;;;;5032467;28;20542;-86
2022/05/13 04:57:39;;;;;;;12.65;4.72;;;11.70;99.90;;;;;;5031282;28;20049;-85
2022/05/13 05:00:07;;;;;;;16.15;4.80;;;11.70;99.90;;;;;;5032321;28;20091;-88
2022/05/13 05:02:33;;;;;;;14.07;4.68;;;11.70;99.90;;;;;;5015365;28;20053;-89
2022/05/13 05:04:59;;;;;;;16.90;5.40;;;11.70;99.90;;;;;;5030482;28;20037;-89
2022/05/13 05:07:25;;;;;;;15.60;4.32;;;11.80;99.90;;;;;;5031972;28;20069;-87
2022/05/13 05:09:50;;;;;;;12.60;4.28;;;11.90;99.90;;;;;;5030546;28;20049;-88
2022/05/13 05:12:16;;;;;;;16.35;4.38;;;11.80;99.90;;;;;;5014588;28;20102;-87
2022/05/13 05:14:42;;;;;;;13.05;4.50;;;11.80;99.90;;;;;;5032602;28;20049;-87
2022/05/13 05:17:07;;;;;;;11.85;4.10;;;11.80;99.90;;;;;;5030679;28;20045;-88
2022/05/13 05:19:33;;;;;;;15.27;4.63;;;11.90;99.90;;;;;;5030665;28;20049;-86
2022/05/13 05:21:59;;;;;;;21.33;5.15;;;11.90;99.90;;;;;;5014417;28;20531;-86
2022/05/13 05:24:25;;;;;;;14.65;4.57;;;12.00;99.90;;;;;;5030811;28;20088;-87
2022/05/13 05:26:50;;;;;;;12.10;4.28;;;12.10;99.90;;;;;;5013852;28;20312;-85
2022/05/13 05:29:16;;;;;;;10.93;4.03;;;12.20;99.90;;;;;;4998069;28;20129;-87
2022/05/13 05:31:42;;;;;;;13.55;4.55;;;12.30;99.90;;;;;;5014087;28;20060;-88
2022/05/13 05:34:07;;;;;;;17.08;4.40;;;12.40;99.90;;;;;;5030066;28;20457;-87
2022/05/13 05:36:34;;;;;;;16.55;4.22;;;12.40;99.90;;;;;;5029756;28;20048;-88
2022/05/13 05:39:00;;;;;;;12.30;4.22;;;12.50;99.90;;;;;;5013670;28;20088;-86
2022/05/13 05:41:26;;;;;;;17.92;4.57;;;12.60;99.90;;;;;;5031516;28;20087;-87
2022/05/13 05:43:52;;;;;;;13.40;3.95;;;12.60;99.90;;;;;;5031555;28;20453;-88
2022/05/13 05:46:17;;;;;;;15.30;3.63;;;12.70;99.90;;;;;;5031276;28;20055;-87
2022/05/13 05:48:43;;;;;;;16.75;4.25;;;12.80;99.90;;;;;;5030197;28;20060;-86
2022/05/13 05:51:09;;;;;;;12.18;3.92;;;12.90;99.90;;;;;;5013524;28;20049;-88
2022/05/13 05:59:04;;;;;;;18.30;4.13;;;13.20;99.90;;;;;;5016120;28;20053;-87
2022/05/13 06:01:30;;;;;;;14.15;3.63;;;13.70;99.90;;;;;;5013847;28;20053;-85
2022/05/13 06:03:55;;;;;;;12.20;4.35;;;14.10;99.90;;;;;;5031193;28;20033;-86
2022/05/13 06:06:21;;;;;;;15.73;4.22;;;14.60;99.90;;;;;;5029868;28;20061;-86
2022/05/13 06:08:47;;;;;;;15.15;3.75;;;14.80;99.90;;;;;;5037990;28;20616;-86
2022/05/13 06:11:12;;;;;;;18.10;4.97;;;14.80;99.90;;;;;;5045919;28;20107;-87
2022/05/13 06:13:38;;;;;;;11.00;3.97;;;14.80;99.90;;;;;;5035807;28;20472;-88
2022/05/13 06:16:07;;;;;;;13.35;3.88;;;14.90;99.90;;;;;;5021483;28;20041;-88
2022/05/13 06:18:34;;;;;;;13.85;3.58;;;14.80;99.90;;;;;;5025467;28;20073;-84
2022/05/13 06:21:00;;;;;;;11.93;3.50;;;14.90;99.90;;;;;;5014115;28;20033;-87
2022/05/13 06:23:25;;;;;;;14.88;3.72;;;14.80;99.90;;;;;;5031710;28;20409;-87
2022/05/13 06:25:51;;;;;;;14.07;3.95;;;14.60;99.90;;;;;;5030921;28;20057;-86
2022/05/13 06:28:16;;;;;;;9.50;3.95;;;14.40;99.90;;;;;;5030479;28;20137;-86
2022/05/13 06:30:42;;;;;;;8.95;3.40;;;14.40;99.90;;;;;;5031424;28;20103;-86
2022/05/13 06:33:08;;;;;;;9.77;3.20;;;14.50;99.90;;;;;;5030116;28;20081;-85
2022/05/13 06:35:34;;;;;;;12.70;3.60;;;14.50;99.90;;;;;;5031230;28;20091;-86
2022/05/13 06:38:00;;;;;;;13.65;3.78;;;14.50;99.90;;;;;;5029642;28;20445;-85
2022/05/13 06:40:29;;;;;;;11.50;3.30;;;14.50;99.90;;;;;;5030222;28;20471;-86
2022/05/13 06:42:54;;;;;;;11.32;3.40;;;14.60;99.90;;;;;;5013664;28;20041;-87
2022/05/13 06:45:20;;;;;;;10.10;3.65;;;14.80;99.90;;;;;;5029584;28;20041;-87
2022/05/13 06:47:46;;;;;;;13.40;3.30;;;14.80;99.90;;;;;;5033751;28;20077;-86
2022/05/13 06:50:13;;;;;;;14.77;3.92;;;14.80;99.90;;;;;;5016618;28;20046;-85
2022/05/13 06:52:39;;;;;;;13.00;3.63;;;15.00;99.90;;;;;;5001593;28;20045;-87
2022/05/13 06:55:05;;;;;;;9.10;3.30;;;15.20;99.90;;;;;;5033430;28;20049;-88
2022/05/13 06:57:31;;;;;;;15.50;3.67;;;15.20;99.90;;;;;;5020654;28;20037;-88
2022/05/13 06:59:56;;;;;;;10.20;3.90;;;15.40;99.90;;;;;;5055228;28;20041;-85
2022/05/13 07:02:23;;;;;;;11.48;3.53;;;15.50;99.90;;;;;;5046738;28;20040;-85
2022/05/13 07:04:48;;;;;;;9.80;3.10;;;15.60;99.90;;;;;;5057451;28;20045;-85
2022/05/13 07:07:14;;;;;;;7.88;2.30;;;15.50;99.90;;;;;;5053495;28;20053;-87
2022/05/13 07:09:40;;;;;;;7.35;2.47;;;15.30;99.90;;;;;;5053196;28;20045;-86
2022/05/13 07:12:07;;;;;;;10.90;2.67;;;15.20;99.90;;;;;;5054400;28;20035;-90
2022/05/13 07:14:34;;;;;;;7.78;2.30;;;15.10;99.90;;;;;;5054569;28;20323;-89
2022/05/13 07:17:03;;;;;;;7.57;2.30;;;15.10;99.90;;;;;;5058180;28;20067;-89
2022/05/13 07:19:29;;;;;;;8.05;2.70;;;15.10;99.90;;;;;;5056653;28;20114;-89
2022/05/13 07:21:55;;;;;;;7.72;2.55;;;15.10;99.90;;;;;;5033661;28;20057;-89
2022/05/13 07:24:21;;;;;;;4.90;2.45;;;15.00;99.90;;;;;;5036904;28;20432;-92
2022/05/13 07:26:46;;;;;;;6.10;1.95;;;15.00;99.90;;;;;;5035348;28;20080;-90
2022/05/13 07:29:12;;;;;;;5.45;2.05;;;14.80;99.90;;;;;;5051871;28;20079;-90
2022/05/13 07:31:39;;;;;;;5.90;2.40;;;15.00;99.90;;;;;;5054596;28;20041;-90
2022/05/13 07:34:05;;;;;;;7.40;2.08;;;15.20;99.90;;;;;;5052847;28;20089;-88
2022/05/13 07:36:32;;;;;;;10.15;2.65;;;15.80;99.90;;;;;;5036768;28;20140;-91
2022/05/13 07:41:41;;;;;;;7.18;2.20;;;16.70;99.90;;;;;;5056153;28;20119;-90
2022/05/13 07:44:07;;;;;;;5.10;1.75;;;16.50;99.90;;;;;;5052575;28;20064;-92
2022/05/13 07:46:33;;;;;;;8.10;2.10;;;16.80;99.90;;;;;;5036352;28;20528;-86
2022/05/13 07:48:58;;;;;;;9.30;2.20;;;16.80;99.90;;;;;;5053610;28;20112;-88
2022/05/13 07:51:26;;;;;;;6.18;2.05;;;16.80;99.90;;;;;;5049631;28;20143;-87
2022/05/13 07:53:52;;;;;;;7.65;2.00;;;17.30;99.90;;;;;;5048610;28;20045;-88
2022/05/13 07:56:18;;;;;;;9.73;2.72;;;17.00;99.90;;;;;;5034283;28;20064;-91
2022/05/13 07:58:43;;;;;;;6.75;2.45;;;18.10;99.90;;;;;;5051614;28;20485;-91
2022/05/13 08:01:09;;;;;;;5.40;2.45;;;18.70;99.90;;;;;;5049081;28;20407;-87
2022/05/13 08:03:35;;;;;;;7.45;1.98;;;19.30;99.90;;;;;;5051386;28;20052;-90
2022/05/13 08:06:03;;;;;;;6.72;2.05;;;18.90;99.90;;;;;;5034672;28;20389;-91
2022/05/13 08:08:40;;;;;;;5.35;1.60;;;18.10;99.90;;;;;;5051258;28;20056;-92
2022/05/13 08:11:10;;;;;;;6.43;1.95;;;17.50;99.90;;;;;;5035488;28;20091;-92
2022/05/13 08:13:36;;;;;;;6.55;1.88;;;17.60;99.90;;;;;;5034291;28;20128;-90
2022/05/13 08:16:06;;;;;;;6.75;2.63;;;17.10;99.90;;;;;;5016765;28;20096;-88
2022/05/13 08:18:32;;;;;;;8.52;2.20;;;16.70;99.90;;;;;;5051690;28;20480;-88
2022/05/13 08:20:57;;;;;;;7.05;1.80;;;16.50;99.90;;;;;;5051080;28;20041;-87
2022/05/13 08:23:23;;;;;;;8.63;2.10;;;16.60;99.90;;;;;;5029084;28;20049;-88
2022/05/13 08:25:49;;;;;;;8.82;2.15;;;16.60;99.90;;;;;;5051011;28;20041;-90
2022/05/13 08:28:15;;;;;;;3.30;1.60;;;16.70;99.90;;;;;;5018056;28;20063;-90
2022/05/13 08:30:41;;;;;;;5.65;2.10;;;16.50;99.90;;;;;;5019055;28;20045;-87
2022/05/13 08:33:08;;;;;;;9.88;2.00;;;16.10;99.90;;;;;;5052272;28;20063;-91
2022/05/13 08:35:38;;;;;;;6.78;1.80;;;16.10;99.90;;;;;;5017601;28;20038;-90
2022/05/13 08:38:06;;;;;;;6.38;1.60;;;16.10;99.90;;;;;;5035956;28;20037;-91
2022/05/13 08:40:57;;;;;;;8.55;2.10;;;16.40;99.90;;;;;;5052249;28;20032;-91
2022/05/13 08:43:25;;;;;;;6.38;1.88;;;16.30;99.90;;;;;;5041650;28;20419;-90
2022/05/13 08:46:01;;;;;;;3.85;1.52;;;16.20;99.90;;;;;;5040407;28;20045;-92
2022/05/13 08:48:31;;;;;;;7.00;2.03;;;16.00;99.90;;;;;;5055384;28;20053;-88
2022/05/13 08:51:37;;;;;;;7.20;1.75;;;16.00;99.90;;;;;;5032019;28;20136;-87
2022/05/13 08:54:15;;;;;;;7.35;2.53;;;15.90;99.90;;;;;;5018019;28;20465;-88
2022/05/13 08:56:46;;;;;;;5.60;2.35;;;16.60;99.90;;;;;;5015676;28;20110;-89
2022/05/13 08:59:23;;;;;;;4.47;2.00;;;17.10;99.90;;;;;;5030671;28;20045;-86
2022/05/13 09:01:57;;;;;;;8.07;1.92;;;17.00;99.90;;;;;;5033410;28;20042;-86
2022/05/13 09:04:42;;;;;;;4.50;1.65;;;17.10;99.90;;;;;;5032169;28;20044;-87
2022/05/13 09:07:12;;;;;;;8.80;2.30;;;17.40;99.90;;;;;;5031489;28;20084;-86
2022/05/13 09:09:39;;;;;;;7.00;1.70;;;17.40;99.90;;;;;;5053725;28;20134;-88
2022/05/13 09:12:17;;;;;;;4.18;2.05;;;17.40;99.90;;;;;;5070457;28;20089;-84
2022/05/13 09:14:57;;;;;;;5.88;1.80;;;17.30;99.90;;;;;;5040759;28;20071;-86
2022/05/13 09:17:33;;;;;;;4.82;1.67;;;16.90;99.90;;;;;;5039033;28;20127;-85
2022/05/13 09:20:14;;;;;;;4.47;1.70;;;17.00;99.90;;;;;;5066746;28;20052;-87
2022/05/13 09:22:42;;;;;;;6.38;1.75;;;17.90;99.90;;;;;;5051159;28;20519;-87
2022/05/13 09:25:15;;;;;;;7.30;1.88;;;18.20;99.90;;;;;;5018471;28;20045;-87
2022/05/13 09:27:56;;;;;;;4.15;1.77;;;17.50;99.90;;;;;;5045810;28;20874;-90
2022/05/13 09:30:23;;;;;;;2.70;1.42;;;17.40;99.90;;;;;;5053007;28;20136;-86
2022/05/13 09:32:48;;;;;;;6.93;2.25;;;17.80;99.90;;;;;;5051992;28;20056;-89
2022/05/13 09:35:23;;;;;;;7.82;2.20;;;18.20;99.90;;;;;;5054643;28;20044;-89
2022/05/13 09:37:49;;;;;;;4.05;1.38;;;18.30;99.90;;;;;;5053908;28;20048;-87
2022/05/13 09:40:17;;;;;;;3.75;1.50;;;18.00;99.90;;;;;;5054362;28;20033;-87
2022/05/13 09:42:45;;;;;;;10.65;2.95;;;18.40;99.90;;;;;;5053098;28;20128;-89
2022/05/13 09:45:14;;;;;;;4.88;1.63;;;18.90;99.90;;;;;;5055080;28;20469;-83
2022/05/13 09:47:40;;;;;;;3.10;1.33;;;18.90;99.90;;;;;;5050769;28;20048;-92
2022/05/13 09:50:23;;;;;;;3.17;1.30;;;18.50;99.90;;;;;;5033776;28;20043;-92
2022/05/13 09:52:48;;;;;;;3.10;1.63;;;19.20;99.90;;;;;;5031461;28;20457;-90
2022/05/13 09:55:22;;;;;;;5.10;1.67;;;18.50;99.90;;;;;;5030982;28;20095;-89
2022/05/13 09:57:49;;;;;;;5.95;1.90;;;17.90;99.90;;;;;;5016777;28;20045;-90
2022/05/13 10:00:19;;;;;;;3.97;1.48;;;17.60;99.90;;;;;;5040008;28;20068;-88
2022/05/13 10:02:47;;;;;;;6.05;1.60;;;17.40;99.90;;;;;;5030791;28;20435;-90
2022/05/13 10:05:25;;;;;;;5.85;1.90;;;17.30;99.90;;;;;;5033270;28;20473;-87
2022/05/13 10:07:54;;;;;;;7.60;1.70;;;17.20;99.90;;;;;;5032715;28;20495;-84
2022/05/13 10:15:56;;;;;;;2.50;1.50;;;16.70;99.90;;;;;;5051235;28;20056;-86
2022/05/13 10:18:31;;;;;;;2.83;1.17;;;16.90;99.90;;;;;;5033160;28;20102;-85
2022/05/13 10:21:12;;;;;;;4.13;1.40;;;16.80;99.90;;;;;;5041996;28;20037;-88
2022/05/13 10:23:43;;;;;;;5.72;1.60;;;17.30;99.90;;;;;;5030361;28;20045;-87
2022/05/13 10:26:10;;;;;;;5.95;1.55;;;17.40;99.90;;;;;;5049895;28;20322;-87
2022/05/13 10:28:52;;;;;;;6.43;1.42;;;16.90;99.90;;;;;;5032762;28;20045;-88
2022/05/13 10:31:22;;;;;;;4.85;1.63;;;16.90;99.90;;;;;;5032860;28;20049;-86
2022/05/13 10:33:54;;;;;;;3.33;1.38;;;17.00;99.90;;;;;;5016953;28;20271;-87
2022/05/13 10:36:34;;;;;;;4.95;1.70;;;16.80;99.90;;;;;;5051751;28;20052;-86
2022/05/13 10:39:09;;;;;;;6.45;1.88;;;17.70;99.90;;;;;;5046582;28;20041;-82
2022/05/13 10:41:37;;;;;;;8.55;2.53;;;17.80;99.90;;;;;;5045846;28;20045;-87
2022/05/13 10:44:41;;;;;;;5.10;2.10;;;17.60;99.90;;;;;;5049604;28;20045;-86
2022/05/13 10:47:31;;;;;;;5.07;1.80;;;17.50;99.90;;;;;;5033143;28;20117;-86
2022/05/13 10:49:56;;;;;;;5.07;1.55;;;18.10;99.90;;;;;;5017994;28;20071;-86
2022/05/13 10:52:40;;;;;;;4.68;1.65;;;19.00;99.90;;;;;;5033021;28;20469;-86
2022/05/13 10:55:33;;;;;;;6.20;2.28;;;18.50;99.90;;;;;;5051061;28;20476;-84
2022/05/13 10:58:02;;;;;;;4.75;1.60;;;18.70;99.90;;;;;;5030954;28;20049;-85
2022/05/13 11:01:10;;;;;;;4.57;1.90;;;19.20;99.90;;;;;;5049088;28;20070;-86
2022/05/13 11:03:51;;;;;;;3.22;1.48;;;19.00;99.90;;;;;;5031797;28;20487;-85
2022/05/13 11:06:32;;;;;;;7.93;2.65;;;18.30;99.90;;;;;;5013114;28;20041;-85
2022/05/13 11:09:34;;;;;;;6.15;1.50;;;18.30;99.90;;;;;;5049740;28;20080;-85
2022/05/13 11:12:37;;;;;;;5.30;1.70;;;19.00;99.90;;;;;;5014639;28;20053;-85
2022/05/13 11:15:22;;;;;;;4.45;1.50;;;19.60;99.90;;;;;;5015070;28;20048;-84
2022/05/13 11:18:35;;;;;;;6.82;1.60;;;19.60;99.90;;;;;;5015356;28;20060;-84
2022/05/13 11:21:25;;;;;;;8.07;1.77;;;19.30;99.90;;;;;;5046075;28;20570;-85
2022/05/13 11:26:54;;;;;;;2.95;1.27;;;18.30;99.90;;;;;;5045976;28;20377;-86
2022/05/13 11:29:30;;;;;;;5.63;1.65;;;18.80;99.90;;;;;;5012584;28;20045;-84
2022/05/13 11:32:13;;;;;;;8.75;1.90;;;18.40;99.90;;;;;;5015887;28;20064;-85
2022/05/13 11:34:50;;;;;;;3.67;1.40;;;18.50;99.90;;;;;;5002453;28;20773;-85
2022/05/13 11:37:17;;;;;;;5.80;1.58;;;18.30;99.90;;;;;;5052058;28;20538;-85
2022/05/13 11:40:17;;;;;;;4.88;1.70;;;18.50;99.90;;;;;;5034871;28;20045;-85
2022/05/13 11:46:07;;;;;;;4.78;1.73;;;18.30;99.90;;;;;;5040535;28;20057;-85
2022/05/13 11:48:37;;;;;;;9.23;2.03;;;18.30;99.90;;;;;;5052653;28;20037;-86
2022/05/13 11:51:09;;;;;;;6.55;2.30;;;18.20;99.90;;;;;;5032849;28;20080;-83
2022/05/13 11:53:44;;;;;;;4.72;1.50;;;18.00;99.90;;;;;;5052031;28;20048;-84
2022/05/13 11:56:17;;;;;;;4.47;1.65;;;18.30;99.90;;;;;;5051973;28;20550;-86
2022/05/13 11:58:51;;;;;;;4.32;1.58;;;18.50;99.90;;;;;;5032359;28;20088;-84
2022/05/13 12:01:38;;;;;;;3.40;1.58;;;18.40;99.90;;;;;;5034833;28;20345;-84
2022/05/13 12:04:28;;;;;;;5.93;1.65;;;18.40;99.90;;;;;;5052398;28;20451;-85
2022/05/13 12:06:55;;;;;;;5.63;1.40;;;18.80;99.90;;;;;;5016870;28;20041;-85
2022/05/13 12:09:44;;;;;;;6.50;1.25;;;19.10;99.90;;;;;;5061939;28;20116;-84
2022/05/13 12:12:36;;;;;;;5.40;1.20;;;19.40;99.90;;;;;;5066411;28;20060;-85
2022/05/13 12:15:03;;;;;;;5.70;1.63;;;19.50;99.90;;;;;;5036145;28;20053;-86
2022/05/13 12:17:43;;;;;;;2.42;1.20;;;19.20;99.90;;;;;;5067530;28;20039;-86
2022/05/13 12:20:34;;;;;;;5.97;1.58;;;19.20;99.90;;;;;;5041619;28;20120;-86
2022/05/13 12:23:02;;;;;;;2.63;1.33;;;19.10;99.90;;;;;;5051353;28;20389;-85
2022/05/13 12:25:31;;;;;;;4.55;1.38;;;18.90;99.90;;;;;;5033954;28;20079;-85
2022/05/13 12:28:10;;;;;;;7.45;1.67;;;18.40;99.90;;;;;;5051845;28;20044;-83
2022/05/13 12:30:41;;;;;;;6.25;1.70;;;18.30;99.90;;;;;;5051682;28;20045;-86
2022/05/13 12:33:24;;;;;;;7.13;3.20;;;18.60;99.90;;;;;;5032188;28;20149;-86
2022/05/13 12:39:06;;;;;;;7.38;1.58;;;18.30;99.90;;;;;;5052229;28;20060;-86
2022/05/13 12:41:46;;;;;;;4.95;1.38;;;18.60;99.90;;;;;;5035131;28;20044;-85
2022/05/13 12:44:30;;;;;;;3.85;1.67;;;18.60;99.90;;;;;;5055029;28;20060;-84
2022/05/13 12:47:14;;;;;;;4.63;1.38;;;18.70;99.90;;;;;;5051544;28;20038;-86
2022/05/13 12:50:08;;;;;;;3.03;1.20;;;19.00;99.90;;;;;;5048357;28;20042;-85
2022/05/13 12:52:36;;;;;;;2.37;1.20;;;19.00;99.90;;;;;;5032735;28;20045;-86
2022/05/13 12:55:12;;;;;;;3.05;1.50;;;18.80;99.90;;;;;;5046754;28;20044;-86
2022/05/13 12:57:43;;;;;;;7.85;1.58;;;18.70;99.90;;;;;;5052540;28;20056;-86
2022/05/13 13:00:19;;;;;;;5.03;1.42;;;18.40;99.90;;;;;;5031929;28;20049;-86
2022/05/13 13:02:47;;;;;;;4.93;1.40;;;18.20;99.90;;;;;;5049246;28;20069;-88
2022/05/13 13:05:17;;;;;;;8.57;1.50;;;18.30;99.90;;;;;;5017963;28;20087;-86
2022/05/13 13:07:43;;;;;;;5.53;1.63;;;18.20;99.90;;;;;;5050475;28;20053;-85
2022/05/13 13:10:10;;;;;;;3.40;1.23;;;18.30;99.90;;;;;;5048855;28;20099;-88
2022/05/13 13:12:46;;;;;;;7.15;1.70;;;18.40;99.90;;;;;;5031607;28;20049;-87
2022/05/13 13:15:20;;;;;;;5.93;1.67;;;18.40;99.90;;;;;;5032969;28;20358;-87
2022/05/13 13:17:54;;;;;;;6.47;1.90;;;18.40;99.90;;;;;;5046847;28;20052;-85
2022/05/13 13:20:20;;;;;;;6.63;1.60;;;18.70;99.90;;;;;;5033252;28;20072;-89
2022/05/13 13:22:52;;;;;;;4.45;1.77;;;18.70;99.90;;;;;;5033091;28;20061;-87
2022/05/13 13:25:31;;;;;;;6.28;1.92;;;18.70;99.90;;;;;;5049006;28;20057;-87
2022/05/13 13:28:26;;;;;;;8.10;1.88;;;19.30;99.90;;;;;;5028828;28;20465;-88
2022/05/13 13:31:03;;;;;;;7.47;1.70;;;19.50;99.90;;;;;;5045571;28;20354;-89
2022/05/13 13:33:34;;;;;;;5.10;1.80;;;19.00;99.90;;;;;;5034596;28;20056;-88
2022/05/13 13:36:12;;;;;;;8.88;1.98;;;19.00;99.90;;;;;;5032105;28;20126;-87
2022/05/13 13:38:38;;;;;;;5.75;1.80;;;19.00;99.90;;;;;;5048885;28;20309;-88
2022/05/13 13:41:05;;;;;;;6.70;1.77;;;18.60;99.90;;;;;;5032608;28;20041;-87